AirNav   Pilot Hours Calculator
 
 447 users online  

06KS Riverside Hospital Airlift Heliport
Wichita, Kansas, USA

GOING TO WICHITA?


FAA INFORMATION EFFECTIVE 08 SEPTEMBER 2022

Location

FAA Identifier: 06KS
Lat/Long: 37-41-45.0490N 097-22-21.1620W
37-41.750817N 097-22.352700W
37.6958469,-97.3725450
(estimated)
Elevation: 1332 ft. / 406 m (estimated)
Variation: 07E (1985)
Time zone: UTC -5 (UTC -6 during Standard Time)
Zip code: 67203

Heliport Operations

Heliport use: Private use, MEDICAL.
Activation date: 09/1980
Control tower: no
ARTCC: KANSAS CITY CENTER
FSS: WICHITA FLIGHT SERVICE STATION
Attendance: UNATNDD
Wind indicator: no
Segmented circle: no

Heliport Communications

WX ASOS at ICT (4 nm SW): PHONE 316-945-8022
WX AWOS-3PT at BEC (7 nm E): 119.45 (316-515-7116)
WX ASOS at AAO (8 nm NE): 134.025 (316-636-2541)
WX AWOS-2 at 1K1 (13 nm E): 118.3 (316-530-6004)
WX AWOS-3P at 3AU (14 nm E): 124.175 (316-733-6696)

Nearby radio navigation aids

VOR radial/distance  VOR name  Freq  Var
ICTr099/10.5WICHITA VORTAC113.8007E
HUTr120/32.2HUTCHINSON VOR/DME116.8004E

 
NDB name  Hdg/Dist  Freq  Var  ID
PICHE025/8.133204EIC .. -.-.

Heliport Services

Runway Information

Helipad H1

Dimensions: 25 x 25 ft. / 8 x 8 m
Surface: turf
Latitude: 37-41.750833N
Longitude: 097-22.352667W
Elevation: 1332.0 ft.
Traffic pattern: leftleft

Heliport Ownership and Management from official FAA records

Ownership: Privately-owned
Owner: RIVERSIDE HOSP
2622 W CENTRAL
WICHITA, KS 67203
Phone 316-946-5000
Manager: ROBERT DIXON C E O
2622 W CENTRAL
WICHITA, KS 67203
Phone 316-946-5000

Additional Remarks

A52-H1 BLDG N & W; 45' POLE 75' SW; 45' POLE 86' S; 45' POLE 175' S; & 15' POLES OUTLINE TURF AREA.
FOR CD CTC WICHITA APCH AT 316-350-1520.

Instrument Procedures

There are no published instrument procedures at 06KS.

Some nearby airports with instrument procedures:

KICT - Wichita Dwight D Eisenhower National Airport (4 nm SW)
KCEA - Cessna Aircraft Field Airport (6 nm SE)
KIAB - Mc Connell Air Force Base (7 nm SE)
KBEC - Beech Factory Airport (7 nm E)
KAAO - Colonel James Jabara Airport (8 nm NE)
1K1 - Lloyd Stearman Field Airport (13 nm E)
3AU - Augusta Municipal Airport (14 nm E)
 
Loc | Ops | Rwys | IFR | FBO | Links
Com | Nav | Svcs | Stats | Notes
Area around 06KS (Riverside Hospital Airlift Heliport)
 
Road maps at: MapQuest Bing Google
 
Aerial photo
No photo
 
Sectional chart

 
Airport distance calculator
Flying to Riverside Hospital Airlift Heliport? Find the distance to fly.

From to 06KS

Sunrise and sunset
Times for 01-Oct-2022
 Local
(UTC-5)
 Zulu
(UTC)
Morning civil twilight07:0012:00
Sunrise07:2612:26
Sunset19:1200:12
Evening civil twilight19:3800:38

Current date and time
Zulu (UTC)  01-Oct-2022 07:50:03
Local (UTC-5)  01-Oct-2022 02:50:03
 
METAR
KICT 
4nm SW 
010653Z 14006KT 10SM SCT250 17/04 A3004 RMK AO2 SLP160 T01670044
KIAB 
7nm SE 
010655Z AUTO 00000KT 10SM FEW160 17/05 A3002 RMK AO2 SLP158 T01660049
KBEC 
7nm E 
010735Z AUTO 11005KT 10SM CLR 15/04 A3005 RMK AO2 T01460040
KAAO 
8nm NE 
010654Z AUTO 13004KT 10SM CLR 16/04 A3004 RMK AO2 SLP164 T01560044
K1K1 
13nm E 
010735Z AUTO 13004KT 10SM CLR 13/03 A3006 RMK AO2 T01320030
K3AU 
14nm E 
301730Z AUTO 18007KT 10SM CLR 24/00 A3011 RMK AO2
TAF
KICT 
4nm SW 
010520Z 0106/0206 14010KT P6SM SCT250 FM011500 15007KT P6SM SCT250 FM012300 12009KT P6SM SCT250 FM020500 11005KT P6SM SKC
KIAB 
7nm SE 
302235Z 3022/0124 19010G17KT 9999 SCT120 BKN250 QNH2998INS BECMG 3023/3024 16009KT 9999 FEW120 BKN250 QNH2998INS BECMG 0116/0117 12009KT 9999 SCT120 BKN250 QNH3005INS TX26/3022Z TN13/0112Z LAST NO AMDS AFT 3022 NEXT 0110
NOTAMs
Click for the latest NOTAMs
NOTAMs are issued by the DoD/FAA and will open in a separate window not controlled by AirNav.

 

 
 

Would you like to see your business listed on this page?

 If your business provides an interesting product or service to pilots, flight crews, aircraft, or users of the Riverside Hospital Airlift Heliport, you should consider listing it here.  To start the listing process, click on the button below
 
Add a business
 

Other Pages about Riverside Hospital Airlift Heliport

Update a link
 
Copyright © AirNav, LLC. All rights reserved. Privacy Policy  Contact